Currently 79°F in Temecula, California, USA
79°F
79°F / 47°F
6 mph SW
0.00"
Monday, March 18, 2019 1:17 PM PDT

Temecula, California Weather Summary
Last 36 Hours

Temperature Winds Hourly Humidity Dewpoint
Time Report Norm Report Norm Max Gusts Precip. Rpt. Norm Rpt. Norm Pressure
1Mon 01:17 PM  78.7°F  71°F  6 mph SW  7 mph  13 mph  0.00"  41%  45%  52°F  48°F  29.96"
2Mon 01:10 PM  79.1°F  71°F  10 mph SW  7 mph  13 mph  ----  40%  46%  52°F  48°F  29.96"
Mon 01:00 PM  78.9°F  71°F  6 mph SW  7 mph  14 mph  0.00"  40%  47%  52°F  48°F  29.96"
Mon 12:00 PM  75.1°F  68°F  1 mph S  5 mph  6 mph  0.00"  41%  52%  49°F  49°F  29.98"
Mon 11:00 AM  67.1°F  63°F  2 mph W  4 mph  9 mph  0.00"  55%  62%  50°F  49°F  30.00"
Mon 10:00 AM  59.7°F  58°F  calm  3 mph  5 mph  0.00"  67%  73%  48°F  49°F  30.02"
Mon 09:00 AM  52.7°F  53°F  calm  2 mph  3 mph  0.00"  86%  85%  48°F  48°F  30.02"
Mon 08:00 AM  47.4°F  49°F  calm  1 mph  none  0.00"  93%  91%  46°F  46°F  30.02"
3Mon 07:42 AM  47.1°F  48°F  calm  1 mph  none  ----  93%  92%  45°F  46°F  30.02"
Mon 07:00 AM  47.4°F  48°F  calm  1 mph  none  0.00"  94%  92%  46°F  45°F  30.00"
Mon 06:00 AM  47.8°F  48°F  calm  1 mph  2 mph  0.00"  92%  92%  46°F  45°F  29.99"
Mon 05:00 AM  49.2°F  48°F  2 mph NE  1 mph  5 mph  0.00"  91%  91%  46°F  46°F  29.98"
Mon 04:00 AM  49.8°F  49°F  2 mph W  1 mph  6 mph  0.00"  89%  90%  47°F  46°F  29.98"
Mon 03:00 AM  51.1°F  50°F  2 mph W  1 mph  3 mph  0.00"  84%  89%  46°F  47°F  29.99"
Mon 02:00 AM  52.3°F  51°F  1 mph N  1 mph  3 mph  0.00"  80%  88%  46°F  47°F  30.00"
Mon 01:00 AM  53.2°F  52°F  2 mph NE  1 mph  4 mph  0.00"  81%  86%  47°F  48°F  30.02"
Mon 12:00 AM  54.8°F  53°F  calm  1 mph  2 mph  0.00"  76%  85%  47°F  48°F  30.02"
Sun 11:00 PM  57.1°F  54°F  calm  1 mph  none  0.00"  71%  83%  47°F  48°F  30.02"
Sun 10:00 PM  59.3°F  55°F  calm  2 mph  5 mph  0.00"  64%  80%  47°F  49°F  30.02"
Sun 09:00 PM  60.7°F  57°F  calm  3 mph  9 mph  0.00"  57%  76%  45°F  49°F  30.00"
Sun 08:00 PM  63.7°F  59°F  4 mph S  4 mph  11 mph  0.00"  55%  72%  46°F  49°F  29.98"
Sun 07:00 PM  69.6°F  61°F  6 mph S  5 mph  13 mph  0.00"  50%  65%  50°F  49°F  29.95"
Sun 06:00 PM  78.4°F  65°F  3 mph S  6 mph  12 mph  0.00"  39%  58%  50°F  50°F  29.94"
Sun 05:00 PM  78.2°F  69°F  8 mph SW  7 mph  14 mph  0.00"  39%  51%  50°F  49°F  29.92"
Sun 04:00 PM  81.1°F  71°F  7 mph SW  8 mph  15 mph  0.00"  34%  47%  49°F  49°F  29.91"
Sun 03:00 PM  81.9°F  72°F  3 mph SW  8 mph  19 mph  0.00"  27%  45%  43°F  49°F  29.91"
Sun 02:00 PM  81.4°F  72°F  8 mph NE  7 mph  21 mph  0.00"  24%  44%  40°F  48°F  29.94"
Sun 01:00 PM  80.0°F  71°F  12 mph NE  7 mph  19 mph  0.00"  28%  47%  43°F  48°F  29.98"
Sun 12:00 PM  76.7°F  68°F  2 mph NE  5 mph  11 mph  0.00"  35%  52%  46°F  49°F  30.00"
Sun 11:00 AM  69.5°F  64°F  4 mph NE  4 mph  6 mph  0.00"  45%  61%  46°F  49°F  30.03"
Sun 10:00 AM  59.9°F  58°F  2 mph SW  3 mph  8 mph  0.00"  64%  73%  47°F  49°F  30.04"
Sun 09:00 AM  53.3°F  53°F  3 mph NW  2 mph  8 mph  0.00"  73%  84%  45°F  48°F  30.04"
Sun 08:00 AM  47.8°F  49°F  3 mph W  1 mph  5 mph  0.00"  85%  90%  43°F  46°F  30.05"
Sun 07:00 AM  47.4°F  48°F  calm  1 mph  6 mph  0.00"  85%  92%  43°F  45°F  30.04"
Sun 06:00 AM  48.0°F  48°F  1 mph S  1 mph  5 mph  0.00"  85%  91%  43°F  45°F  30.03"
Sun 05:00 AM  47.6°F  48°F  1 mph N  1 mph  6 mph  0.00"  86%  91%  44°F  46°F  30.02"
Sun 04:00 AM  48.3°F  49°F  3 mph SW  1 mph  9 mph  0.00"  84%  90%  43°F  46°F  30.01"
Sun 03:00 AM  49.7°F  50°F  1 mph W  1 mph  6 mph  0.00"  79%  89%  43°F  47°F  30.02"
Sun 02:00 AM  51.6°F  51°F  calm  1 mph  3 mph  0.00"  75%  88%  44°F  47°F  30.03"

  1. Current weather data. No green row appears if the current weather data is also the high or low for the current day.
  2. High temperature for the current day.
  3. Low temperature for the current day.

The Temecula weather pages are a service of WeatherCurrents. Temecula, California is located in the Temecula Valley, in southwestern Riverside County, along the Interstate 15 highway. The Temecula Valley's rolling hills are home to the Temecula wine country, vineyards, golf courses, a casino resort, and Old Town Temecula.
Copyright ©Mon Mar 18 13:18:31 PDT 2019  WeatherCurrents. All rights reserved. - Submit questions and comments - Privacy Policy

This page automatically refreshes every 10 minutes.